Time;durP1;ratioP1;P1;durP2;ratioP2;P2;SDS_P1;SDS_P2;PMS_P1;PMS_P2;Temp;Humidity;BMP_temperature;BMP_pressure;BME280_temperature;BME280_humidity;BME280_pressure;Samples;Min_cycle;Max_cycle;Signal;HPM_P1;HPM_P2
2022/05/19 00:01:06;;;;;;;22.75;20.40;;;;;;;18.79;69.95;101706.00;4976783;28;20674;-67
2022/05/19 00:03:35;;;;;;;23.23;20.83;;;;;;;18.80;69.87;101705.00;4984734;28;20073;-67
2022/05/19 00:06:00;;;;;;;;;;;;;;;18.92;68.65;101695.84;4988399;28;20039;-67
2022/05/19 00:08:27;;;;;;;23.90;21.52;;;;;;;18.66;70.14;101695.06;5006984;28;20016;-67
2022/05/19 00:10:55;;;;;;;23.17;20.77;;;;;;;18.78;70.12;101696.47;5006866;28;20224;-66
2022/05/19 00:13:21;;;;;;;24.15;21.65;;;;;;;18.56;70.96;101698.63;4988722;28;20057;-67
2022/05/19 00:15:47;;;;;;;24.13;21.73;;;;;;;18.61;70.53;101692.09;4988800;28;20019;-68
2022/05/19 00:18:12;;;;;;;24.70;21.88;;;;;;;18.55;70.83;101678.59;4987955;28;20050;-67
2022/05/19 00:20:37;;;;;;;23.67;21.38;;;;;;;18.55;71.38;101673.34;5002062;28;20037;-67
2022/05/19 00:23:03;;;;;;;23.75;21.33;;;;;;;18.55;71.01;101680.41;5008421;28;20029;-67
2022/05/19 00:25:30;;;;;;;25.08;22.48;;;;;;;18.51;71.38;101677.25;5007968;28;20026;-67
2022/05/19 00:27:55;;;;;;;24.88;22.38;;;;;;;18.47;71.50;101660.16;5008485;28;20496;-67
2022/05/19 00:30:21;;;;;;;25.67;22.98;;;;;;;18.50;71.35;101670.34;4998735;28;20463;-67
2022/05/19 00:32:46;;;;;;;25.40;22.67;;;;;;;18.53;71.54;101666.59;4998612;28;20470;-67
2022/05/19 00:35:11;;;;;;;26.75;23.90;;;;;;;18.47;71.74;101657.53;4998724;28;20018;-67
2022/05/19 00:37:36;;;;;;;26.60;23.83;;;;;;;18.53;71.61;101654.28;4986789;28;20442;-67
2022/05/19 00:40:03;;;;;;;26.77;24.17;;;;;;;18.45;71.87;101659.47;4981132;28;20116;-67
2022/05/19 00:42:43;;;;;;;27.48;24.80;;;;;;;18.39;72.30;101649.59;4995406;28;20038;-67
2022/05/19 00:45:10;;;;;;;27.45;24.55;;;;;;;18.44;71.97;101655.22;4986238;28;20030;-67
2022/05/19 00:47:47;;;;;;;26.02;23.52;;;;;;;18.45;71.90;101646.34;4991796;28;20053;-67
2022/05/19 00:50:42;;;;;;;26.05;23.35;;;;;;;18.50;71.42;101641.44;4988590;28;20023;-68
2022/05/19 00:53:18;;;;;;;26.42;23.67;;;;;;;18.45;71.87;101643.72;4987174;28;20046;-67
2022/05/19 00:55:46;;;;;;;26.52;23.83;;;;;;;18.34;72.43;101644.00;4975445;28;20026;-68
2022/05/19 00:58:30;;;;;;;27.02;24.40;;;;;;;18.36;72.06;101635.97;4987467;28;20030;-67
2022/05/19 01:00:55;;;;;;;25.83;23.38;;;;;;;18.39;72.08;101631.22;4985560;28;20427;-67
2022/05/19 01:03:22;;;;;;;25.70;23.10;;;;;;;18.32;72.28;101635.47;4995542;28;20033;-67
2022/05/19 01:05:58;;;;;;;26.15;22.75;;;;;;;18.31;72.48;101637.25;4989323;28;20026;-67
2022/05/19 01:09:05;;;;;;;26.38;23.77;;;;;;;18.40;71.71;101617.09;4992947;28;20377;-67
2022/05/19 01:11:31;;;;;;;24.77;22.35;;;;;;;18.33;72.53;101620.53;4980730;28;20049;-67
2022/05/19 01:13:57;;;;;;;26.33;23.73;;;;;;;18.28;72.92;101626.22;4986457;28;20100;-68
2022/05/19 01:16:25;;;;;;;26.67;23.98;;;;;;;18.32;72.90;101627.56;4986231;28;20129;-67
2022/05/19 01:18:50;;;;;;;27.02;24.42;;;;;;;18.32;72.69;101622.31;5002644;28;20022;-67
2022/05/19 01:21:19;;;;;;;26.63;24.00;;;;;;;18.26;72.88;101620.31;5007015;28;20064;-67
2022/05/19 01:23:56;;;;;;;28.10;25.25;;;;;;;18.24;73.06;101617.03;5007160;28;20052;-67
2022/05/19 01:26:27;;;;;;;27.48;24.67;;;;;;;18.30;72.96;101600.66;4986486;28;20053;-66
2022/05/19 01:28:54;;;;;;;27.63;24.83;;;;;;;18.22;73.31;101600.59;4987251;28;20031;-67
2022/05/19 01:31:54;;;;;;;28.58;25.52;;;;;;;18.28;72.87;101605.22;4993985;28;20033;-67
2022/05/19 01:34:22;;;;;;;27.70;24.92;;;;;;;18.16;73.54;101588.09;4989576;28;20326;-68
2022/05/19 01:36:47;;;;;;;28.20;25.42;;;;;;;18.21;73.04;101585.81;4987290;28;20463;-67
2022/05/19 01:39:21;;;;;;;29.42;26.52;;;;;;;18.12;73.62;101581.50;4987157;28;20038;-67
2022/05/19 01:41:56;;;;;;;30.60;26.05;;;;;;;18.12;73.54;101568.38;4987797;28;20468;-67
2022/05/19 01:44:37;;;;;;;30.02;26.92;;;;;;;18.04;73.76;101575.22;4986583;28;20083;-67
2022/05/19 01:47:09;;;;;;;29.88;26.83;;;;;;;18.00;74.18;101568.66;4990567;28;20042;-68
2022/05/19 01:49:41;;;;;;;29.75;26.95;;;;;;;18.04;74.02;101585.75;4999437;28;20031;-69
2022/05/19 01:52:38;;;;;;;29.48;26.73;;;;;;;18.10;73.68;101572.97;4986098;28;20034;-67
2022/05/19 01:55:14;;;;;;;29.60;26.58;;;;;;;17.95;74.77;101563.06;4980016;28;20035;-67
2022/05/19 01:57:57;;;;;;;29.23;26.42;;;;;;;18.08;74.52;101561.81;4987350;28;20030;-68
2022/05/19 02:00:25;;;;;;;29.25;26.25;;;;;;;18.13;74.15;101567.41;4985424;28;20038;-67
2022/05/19 02:03:11;;;;;;;28.33;25.77;;;;;;;18.00;74.61;101571.25;4987248;28;20534;-68
2022/05/19 02:05:56;;;;;;;28.40;25.65;;;;;;;18.04;74.69;101569.16;5002031;28;20107;-67
2022/05/19 02:08:28;;;;;;;28.58;25.88;;;;;;;17.97;74.62;101565.53;5002589;28;20048;-67
2022/05/19 02:10:58;;;;;;;29.40;25.85;;;;;;;18.05;74.69;101570.81;4987435;28;20034;-68
2022/05/19 02:13:24;;;;;;;28.27;25.48;;;;;;;18.05;75.03;101568.19;4986636;28;20093;-67
2022/05/19 02:15:52;;;;;;;27.00;24.50;;;;;;;18.07;75.24;101562.78;4989055;28;20072;-67
2022/05/19 02:18:24;;;;;;;26.83;24.20;;;;;;;18.04;75.17;101564.72;4990921;28;20038;-67
2022/05/19 02:20:52;;;;;;;27.85;24.98;;;;;;;18.11;75.04;101556.22;4991122;28;20092;-67
2022/05/19 02:23:17;;;;;;;27.45;24.83;;;;;;;18.09;74.71;101556.41;4990696;28;20022;-67
2022/05/19 02:25:46;;;;;;;27.63;24.98;;;;;;;18.01;75.01;101551.94;4991132;28;20061;-67
2022/05/19 02:28:27;;;;;;;26.95;24.33;;;;;;;18.14;74.62;101553.31;4990269;28;20101;-67
2022/05/19 02:30:54;;;;;;;25.85;23.35;;;;;;;18.03;74.92;101560.47;4990982;28;20518;-67
2022/05/19 02:33:21;;;;;;;26.13;23.42;;;;;;;18.18;74.46;101562.50;4990662;28;20485;-67
2022/05/19 02:35:47;;;;;;;25.83;23.25;;;;;;;18.22;73.92;101561.22;4991081;28;20596;-67
2022/05/19 02:38:14;;;;;;;26.65;23.80;;;;;;;18.17;74.65;101559.06;4992481;28;20037;-67
2022/05/19 02:40:41;;;;;;;25.00;22.70;;;;;;;18.20;74.46;101560.56;4990774;28;20053;-67
2022/05/19 02:43:07;;;;;;;25.67;23.05;;;;;;;18.20;74.20;101557.94;4990706;28;20049;-67
2022/05/19 02:45:33;;;;;;;26.42;23.92;;;;;;;18.19;74.21;101553.66;4990470;28;20525;-67
2022/05/19 02:47:59;;;;;;;26.65;24.25;;;;;;;18.24;74.17;101569.78;4989939;28;20038;-67
2022/05/19 02:50:25;;;;;;;27.77;25.08;;;;;;;18.22;74.79;101571.72;4998713;28;20120;-67
2022/05/19 02:52:51;;;;;;;27.98;25.20;;;;;;;18.21;74.60;101575.31;4992602;28;20109;-67
2022/05/19 02:55:17;;;;;;;27.25;24.67;;;;;;;18.22;74.60;101576.97;5006568;28;20026;-67
2022/05/19 02:57:43;;;;;;;28.02;25.42;;;;;;;18.21;74.64;101576.16;4995924;28;20536;-67
2022/05/19 03:00:13;;;;;;;28.23;25.38;;;;;;;18.21;74.84;101586.66;4992624;28;20038;-67
2022/05/19 03:02:43;;;;;;;28.27;25.63;;;;;;;18.23;74.51;101594.38;4990426;28;20080;-67
2022/05/19 03:05:10;;;;;;;28.17;25.27;;;;;;;18.20;74.40;101615.69;4988862;28;20366;-67
2022/05/19 03:07:36;;;;;;;29.98;26.95;;;;;;;17.98;75.68;101649.34;5006605;28;20029;-67
2022/05/19 03:10:03;;;;;;;30.67;27.88;;;;;;;17.92;76.41;101757.56;4994970;28;20038;-67
2022/05/19 03:12:28;;;;;;;30.75;27.60;;;;;;;17.98;76.81;101717.59;4990104;28;20026;-67
2022/05/19 03:14:54;;;;;;;30.88;27.92;;;;;;;18.02;76.59;101708.47;4989895;28;20057;-67
2022/05/19 03:17:20;;;;;;;29.38;26.48;;;;;;;18.14;76.08;101731.84;4987899;28;20038;-67
2022/05/19 03:19:46;;;;;;;29.27;26.58;;;;;;;18.20;75.85;101732.06;4990218;28;20026;-67
2022/05/19 03:22:11;;;;;;;29.55;26.73;;;;;;;18.26;76.27;101718.31;4989696;28;20030;-68
2022/05/19 03:24:36;;;;;;;29.58;26.85;;;;;;;18.33;75.37;101718.50;5005789;28;20028;-67
2022/05/19 03:27:03;;;;;;;28.40;25.60;;;;;;;18.38;75.35;101724.13;5001838;28;20467;-67
2022/05/19 03:29:28;;;;;;;28.38;25.60;;;;;;;18.45;75.26;101724.34;4989615;28;20041;-67
2022/05/19 03:31:53;;;;;;;25.83;23.27;;;;;;;18.45;74.94;101714.66;4989749;28;20481;-67
2022/05/19 03:34:19;;;;;;;22.63;20.23;;;;;;;18.50;74.42;101717.63;4989342;28;20034;-68
2022/05/19 03:36:45;;;;;;;20.75;18.75;;;;;;;18.56;74.45;101726.69;4989576;28;20073;-67
2022/05/19 03:39:11;;;;;;;21.20;17.77;;;;;;;18.61;74.03;101734.13;4991156;28;20106;-69
2022/05/19 03:41:36;;;;;;;17.27;15.57;;;;;;;18.64;73.61;101739.06;4989422;28;20023;-67
2022/05/19 03:44:02;;;;;;;17.27;14.77;;;;;;;18.59;73.56;101726.41;4988016;28;20034;-67
2022/05/19 03:46:27;;;;;;;16.02;14.32;;;;;;;18.73;73.52;101738.97;4988609;28;20460;-67
2022/05/19 03:48:53;;;;;;;14.20;12.70;;;;;;;18.68;73.87;101740.44;4989376;28;20034;-67
2022/05/19 03:51:24;;;;;;;18.20;12.50;;;;;;;18.66;73.72;101732.69;4987472;28;20030;-67
2022/05/19 03:53:50;;;;;;;11.90;9.25;;;;;;;18.73;73.16;101727.66;4988418;28;20034;-68
2022/05/19 03:56:17;;;;;;;9.93;8.90;;;;;;;18.75;73.26;101728.31;4987636;28;20029;-67
2022/05/19 03:58:42;;;;;;;9.82;7.60;;;;;;;18.72;73.06;101726.84;4989124;28;20038;-66
2022/05/19 04:01:09;;;;;;;9.63;7.20;;;;;;;18.76;72.69;101716.84;4988006;28;20022;-68
2022/05/19 04:03:35;;;;;;;7.77;5.60;;;;;;;18.67;72.88;101717.72;4985189;28;20045;-67
2022/05/19 04:06:01;;;;;;;9.60;5.07;;;;;;;18.73;73.43;101717.13;4987171;28;20749;-67
2022/05/19 04:08:26;;;;;;;7.68;5.05;;;;;;;18.75;73.34;101725.69;4989220;28;20479;-67
2022/05/19 04:10:52;;;;;;;6.15;4.40;;;;;;;18.69;74.28;101731.56;4987924;28;20049;-67
2022/05/19 04:13:17;;;;;;;6.20;4.35;;;;;;;18.63;74.69;101726.91;4987993;28;20058;-67
2022/05/19 04:15:43;;;;;;;6.03;4.25;;;;;;;18.66;74.60;101721.34;4988474;28;20026;-68
2022/05/19 04:18:08;;;;;;;6.28;4.55;;;;;;;18.63;75.06;101722.47;4987020;28;20037;-67
2022/05/19 04:20:34;;;;;;;6.57;4.28;;;;;;;18.62;75.68;101714.75;4987082;28;20030;-67
2022/05/19 04:23:01;;;;;;;5.22;4.00;;;;;;;18.54;74.83;101708.47;4987159;28;20037;-67
2022/05/19 04:25:28;;;;;;;6.20;4.10;;;;;;;18.62;75.42;101725.25;4987964;28;20180;-67
2022/05/19 04:27:53;;;;;;;6.03;4.15;;;;;;;18.60;75.38;101725.41;4988211;28;20467;-67
2022/05/19 04:30:19;;;;;;;6.68;4.00;;;;;;;18.67;74.99;101733.50;4987677;28;20030;-68
2022/05/19 04:32:44;;;;;;;5.88;4.07;;;;;;;18.58;75.73;101730.84;4987709;28;20029;-67
2022/05/19 04:35:12;;;;;;;7.05;4.50;;;;;;;18.53;76.01;101743.63;4986006;28;20486;-67
2022/05/19 04:37:38;;;;;;;6.57;4.10;;;;;;;18.56;75.25;101743.28;4984539;28;20030;-70
2022/05/19 04:40:04;;;;;;;5.57;3.92;;;;;;;18.55;74.96;101741.66;4987912;28;20022;-67
2022/05/19 04:42:30;;;;;;;6.68;3.92;;;;;;;18.53;74.54;101722.59;4985968;28;20030;-67
2022/05/19 04:44:57;;;;;;;6.05;4.05;;;;;;;18.43;75.52;101737.63;4985091;28;20030;-67
2022/05/19 04:47:23;;;;;;;5.47;4.10;;;;;;;18.39;76.01;101753.84;4985489;28;20026;-67
2022/05/19 04:49:48;;;;;;;4.93;3.78;;;;;;;18.51;75.29;101740.28;4987034;28;20041;-67
2022/05/19 04:52:14;;;;;;;6.32;3.67;;;;;;;18.47;74.77;101744.22;4987791;28;20030;-67
2022/05/19 04:54:40;;;;;;;6.10;3.63;;;;;;;18.49;75.20;101754.56;4989359;28;20463;-67
2022/05/19 04:57:06;;;;;;;6.00;3.42;;;;;;;18.56;74.47;101763.47;4990972;28;20146;-67
2022/05/19 04:59:32;;;;;;;6.80;3.30;;;;;;;18.60;74.19;101758.75;5007818;28;20057;-67
2022/05/19 05:01:58;;;;;;;5.03;3.35;;;;;;;18.53;74.59;101737.53;5007621;28;20105;-66
2022/05/19 05:04:26;;;;;;;5.57;3.15;;;;;;;18.50;73.30;101738.66;5007316;28;20108;-67
2022/05/19 05:06:52;;;;;;;6.57;3.20;;;;;;;18.53;73.54;101737.53;5006025;28;20474;-68
2022/05/19 05:09:17;;;;;;;5.68;3.00;;;;;;;18.49;73.01;101746.69;4998563;28;20033;-67
2022/05/19 05:11:43;;;;;;;5.35;3.10;;;;;;;18.45;73.49;101759.31;4986298;28;20038;-67
2022/05/19 05:14:08;;;;;;;7.10;3.03;;;;;;;18.47;73.69;101743.41;4987011;28;20085;-66
2022/05/19 05:16:34;;;;;;;5.53;3.13;;;;;;;18.50;73.26;101749.16;4987721;28;20084;-67
2022/05/19 05:18:59;;;;;;;4.80;2.90;;;;;;;18.43;73.58;101763.06;4987606;28;20030;-67
2022/05/19 05:21:25;;;;;;;5.63;3.17;;;;;;;18.42;74.34;101770.13;4987641;28;20018;-67
2022/05/19 05:23:50;;;;;;;5.95;3.40;;;;;;;18.44;74.30;101765.53;4986845;28;20069;-67
2022/05/19 05:26:15;;;;;;;6.15;3.33;;;;;;;18.39;75.24;101736.28;4985005;28;20070;-69
2022/05/19 05:28:40;;;;;;;7.43;4.00;;;;;;;18.32;76.32;101724.75;4987166;28;20513;-67
2022/05/19 05:31:06;;;;;;;6.22;4.20;;;;;;;18.24;76.84;101735.22;4986307;28;20494;-67
2022/05/19 05:33:31;;;;;;;7.35;4.07;;;;;;;18.16;76.97;101709.69;4987218;28;20493;-67
2022/05/19 05:35:57;;;;;;;6.45;3.75;;;;;;;18.08;76.77;101721.94;4987158;28;20442;-66
2022/05/19 05:38:23;;;;;;;6.43;3.83;;;;;;;18.09;76.57;101707.84;4989566;28;20033;-67
2022/05/19 05:40:52;;;;;;;6.20;3.60;;;;;;;18.16;77.55;101745.63;4987402;28;20434;-67
2022/05/19 05:43:19;;;;;;;5.75;3.80;;;;;;;18.08;78.24;101737.69;4987079;28;20037;-67
2022/05/19 05:45:46;;;;;;;7.68;3.85;;;;;;;17.97;78.84;101726.47;4987974;28;20054;-67
2022/05/19 05:48:13;;;;;;;5.10;4.07;;;;;;;17.95;79.45;101732.81;4987267;28;20163;-67
2022/05/19 05:50:39;;;;;;;8.25;4.18;;;;;;;18.10;79.07;101726.06;4988752;28;20537;-67
2022/05/19 05:53:06;;;;;;;5.72;3.78;;;;;;;18.07;79.63;101673.06;4989960;28;20034;-67
2022/05/19 05:55:32;;;;;;;5.72;3.53;;;;;;;17.93;80.01;101593.88;4990074;28;20876;-68
2022/05/19 05:57:57;;;;;;;7.72;3.70;;;;;;;17.93;80.37;101580.75;4988626;28;20034;-68
2022/05/19 06:00:23;;;;;;;5.88;3.80;;;;;;;17.97;80.74;101604.91;4991670;28;20037;-68
2022/05/19 06:02:49;;;;;;;6.13;3.97;;;;;;;18.01;80.34;101601.81;4990334;28;20795;-68
2022/05/19 06:05:15;;;;;;;5.38;3.50;;;;;;;17.94;80.85;101585.00;4990215;28;20475;-67
2022/05/19 06:07:41;;;;;;;8.52;3.88;;;;;;;17.94;81.02;101553.50;4989938;28;20037;-67
2022/05/19 06:10:08;;;;;;;7.10;3.72;;;;;;;17.90;81.15;101541.69;5006208;28;20034;-67
2022/05/19 06:12:34;;;;;;;6.80;3.45;;;;;;;17.96;81.50;101535.84;4989097;28;20038;-68
2022/05/19 06:14:59;;;;;;;6.07;3.47;;;;;;;18.10;80.66;101557.22;4989612;28;20126;-69
2022/05/19 06:17:25;;;;;;;6.38;3.80;;;;;;;18.09;80.66;101566.06;5004683;28;20370;-68
2022/05/19 06:19:50;;;;;;;6.40;3.60;;;;;;;18.14;80.35;101582.19;4990398;28;20467;-68
2022/05/19 06:22:17;;;;;;;4.70;3.45;;;;;;;18.15;81.67;101589.09;5021433;28;20564;-67
2022/05/19 06:24:43;;;;;;;7.47;4.07;;;;;;;18.12;82.09;101592.00;4990605;28;20030;-71
2022/05/19 06:27:08;;;;;;;7.13;4.40;;;;;;;18.14;81.35;101576.94;4990562;28;20037;-67
2022/05/19 06:29:34;;;;;;;5.60;4.05;;;;;;;18.24;81.29;101590.78;4991003;28;20414;-67
2022/05/19 06:31:59;;;;;;;5.88;4.18;;;;;;;18.27;81.60;101593.06;4989158;28;20470;-68
2022/05/19 06:34:25;;;;;;;6.30;4.68;;;;;;;18.33;80.80;101600.34;4990412;28;20038;-68
2022/05/19 06:36:50;;;;;;;6.38;4.30;;;;;;;18.33;80.39;101595.06;4990959;28;20022;-67
2022/05/19 06:39:16;;;;;;;6.60;4.45;;;;;;;18.34;80.89;101607.22;4991574;28;20471;-68
2022/05/19 06:42:00;;;;;;;6.80;4.50;;;;;;;18.30;81.85;101643.50;4990823;28;20102;-68
2022/05/19 06:44:34;;;;;;;7.47;4.75;;;;;;;18.33;82.49;101644.97;4990933;28;20081;-68
2022/05/19 06:47:00;;;;;;;7.45;4.88;;;;;;;18.21;81.57;101635.72;4990734;28;20040;-68
2022/05/19 06:49:26;;;;;;;9.25;5.28;;;;;;;18.11;81.97;101637.63;4990668;28;20478;-67
2022/05/19 06:51:52;;;;;;;6.65;5.65;;;;;;;18.20;83.09;101641.97;4988945;28;20022;-68
2022/05/19 06:54:19;;;;;;;6.95;5.40;;;;;;;18.21;83.65;101643.59;4990133;28;20034;-67
2022/05/19 06:56:44;;;;;;;7.88;5.60;;;;;;;18.22;83.49;101632.09;4990648;28;20064;-68
2022/05/19 06:59:10;;;;;;;6.70;5.75;;;;;;;18.35;84.01;101635.16;5009445;28;20053;-68
2022/05/19 07:01:35;;;;;;;7.00;5.68;;;;;;;18.32;83.56;101635.47;4988928;28;20026;-67
2022/05/19 07:04:01;;;;;;;7.40;5.75;;;;;;;18.37;83.06;101638.44;4989729;28;20034;-67
2022/05/19 07:06:26;;;;;;;8.20;5.80;;;;;;;18.46;83.36;101626.97;4990043;28;20037;-68
2022/05/19 07:08:52;;;;;;;8.07;6.47;;;;;;;18.57;83.13;101624.06;4989317;28;20381;-69
2022/05/19 07:11:27;;;;;;;9.35;6.43;;;;;;;18.60;82.12;101616.88;4987517;28;20146;-70
2022/05/19 07:13:55;;;;;;;9.80;6.95;;;;;;;18.67;82.18;101618.72;4988593;28;20478;-67
2022/05/19 07:16:20;;;;;;;8.85;6.43;;;;;;;18.67;82.86;101607.38;4990263;28;20260;-67
2022/05/19 07:18:46;;;;;;;9.50;6.50;;;;;;;18.71;82.11;101617.44;4989540;28;20374;-68
2022/05/19 07:21:12;;;;;;;8.40;6.53;;;;;;;18.76;82.47;101611.72;4988500;28;20044;-67
2022/05/19 07:23:37;;;;;;;7.93;6.43;;;;;;;18.82;81.72;101606.63;4989373;28;20018;-67
2022/05/19 07:26:03;;;;;;;9.35;6.65;;;;;;;18.88;81.66;101605.19;4989486;28;20100;-67
2022/05/19 07:28:28;;;;;;;8.15;6.65;;;;;;;18.87;81.13;101597.44;4988569;28;20035;-67
2022/05/19 07:30:53;;;;;;;7.97;6.68;;;;;;;18.87;81.14;101587.75;4989637;28;20479;-68
2022/05/19 07:33:19;;;;;;;7.60;6.57;;;;;;;18.89;80.63;101591.03;4988499;28;20631;-67
2022/05/19 07:35:46;;;;;;;7.55;6.47;;;;;;;18.97;80.31;101596.31;4981705;28;20026;-67
2022/05/19 07:38:14;;;;;;;8.05;7.13;;;;;;;19.09;81.05;101597.63;4991455;28;20057;-67
2022/05/19 07:40:41;;;;;;;8.77;7.32;;;;;;;19.08;80.82;101590.75;4988343;28;20026;-67
2022/05/19 07:45:51;;;;;;;8.52;7.40;;;;;;;19.24;79.54;101605.72;4989329;28;20438;-67
2022/05/19 07:48:16;;;;;;;9.65;6.95;;;;;;;19.36;79.36;101587.81;4988830;28;20057;-67
2022/05/19 07:50:42;;;;;;;9.63;7.68;;;;;;;19.43;79.30;101594.06;4989138;28;20022;-67
2022/05/19 07:53:08;;;;;;;9.55;7.90;;;;;;;19.59;79.96;101596.72;4989178;28;20034;-68
2022/05/19 07:55:33;;;;;;;9.80;8.90;;;;;;;19.65;78.50;101599.69;4989229;28;20050;-67
2022/05/19 07:58:00;;;;;;;8.77;7.88;;;;;;;19.69;78.88;101595.75;4999114;28;20048;-67
2022/05/19 08:00:25;;;;;;;9.20;7.97;;;;;;;19.73;78.66;101599.69;5008319;28;20036;-67
2022/05/19 08:02:51;;;;;;;9.85;8.30;;;;;;;19.72;79.19;101600.66;5009063;28;20172;-67
2022/05/19 08:05:16;;;;;;;10.10;8.80;;;;;;;19.90;79.91;101601.31;4996200;28;20037;-67
2022/05/19 08:07:42;;;;;;;10.23;8.63;;;;;;;20.04;79.26;101597.16;4989504;28;20030;-67
2022/05/19 08:10:25;;;;;;;10.13;9.13;;;;;;;20.10;79.92;101607.84;5004381;28;20045;-67
2022/05/19 08:15:42;;;;;;;10.25;9.10;;;;;;;20.31;78.28;101623.09;5008773;28;20091;-68
2022/05/19 08:18:12;;;;;;;;;;;;;;;20.42;77.83;101621.91;4988323;28;20497;-68
2022/05/19 08:20:44;;;;;;;9.20;7.90;;;;;;;20.61;76.30;101621.53;4986908;28;20000;-67
2022/05/19 08:23:15;;;;;;;9.60;7.22;;;;;;;20.77;74.38;101619.81;4987439;28;20085;-67
2022/05/19 08:25:40;;;;;;;9.73;6.95;;;;;;;20.87;72.36;101615.13;4988719;28;20082;-68
2022/05/19 08:28:06;;;;;;;9.32;7.90;;;;;;;21.02;72.18;101623.94;4988703;28;20556;-68
2022/05/19 08:30:32;;;;;;;8.75;7.32;;;;;;;21.13;71.77;101620.09;4987332;28;20037;-67
2022/05/19 08:32:57;;;;;;;10.43;7.90;;;;;;;21.25;71.05;101608.13;4987959;28;20113;-67
2022/05/19 08:35:24;;;;;;;8.88;7.97;;;;;;;21.36;69.88;101606.94;4988223;28;20497;-68
2022/05/19 08:37:49;;;;;;;9.63;8.27;;;;;;;21.46;68.54;101599.59;4988464;28;20350;-68
2022/05/19 08:40:17;;;;;;;9.98;8.98;;;;;;;21.55;68.66;101598.50;4990501;28;20030;-67
2022/05/19 08:42:48;;;;;;;9.55;8.55;;;;;;;21.78;68.67;101592.38;4988410;28;20046;-67
2022/05/19 08:45:28;;;;;;;10.43;9.15;;;;;;;21.80;66.97;101585.09;4987928;28;20037;-67
2022/05/19 08:48:04;;;;;;;10.60;9.48;;;;;;;21.83;66.62;101568.88;4988639;28;20514;-66
2022/05/19 08:50:42;;;;;;;10.45;9.30;;;;;;;22.04;67.42;101576.91;4988037;28;20022;-67
2022/05/19 08:53:11;;;;;;;10.23;8.88;;;;;;;22.12;66.37;101568.91;4986687;28;20040;-69
2022/05/19 08:55:39;;;;;;;10.10;9.07;;;;;;;22.21;65.61;101562.53;4988107;28;20105;-70
2022/05/19 08:58:17;;;;;;;13.02;10.13;;;;;;;22.30;64.66;101570.38;4999197;28;20029;-67
2022/05/19 09:00:49;;;;;;;11.48;9.73;;;;;;;22.49;65.29;101569.81;5008063;28;20084;-67
2022/05/19 09:03:41;;;;;;;9.32;8.18;;;;;;;22.64;66.48;101573.22;5007439;28;20026;-67
2022/05/19 09:06:06;;;;;;;9.80;8.80;;;;;;;22.70;63.62;101576.94;5005201;28;20100;-67
2022/05/19 09:08:52;;;;;;;11.38;9.05;;;;;;;22.82;63.80;101578.09;4990014;28;20034;-67
2022/05/19 09:11:21;;;;;;;9.70;8.70;;;;;;;22.90;62.54;101583.31;5007939;28;20037;-67
2022/05/19 09:13:59;;;;;;;12.55;9.43;;;;;;;23.00;63.25;101583.00;5007593;28;20049;-67
2022/05/19 09:16:28;;;;;;;11.07;8.90;;;;;;;23.14;62.31;101582.13;5008039;28;20033;-68
2022/05/19 09:19:16;;;;;;;9.85;8.85;;;;;;;23.23;63.06;101581.00;5007510;28;20021;-67
2022/05/19 09:21:44;;;;;;;9.75;8.75;;;;;;;23.38;61.35;101586.19;4993477;28;20034;-68
2022/05/19 09:24:11;;;;;;;9.57;8.57;;;;;;;23.51;61.17;101586.31;4987065;28;20398;-67
2022/05/19 09:26:54;;;;;;;11.23;9.10;;;;;;;23.60;60.62;101584.31;4987879;28;20113;-67
2022/05/19 09:29:21;;;;;;;9.32;8.43;;;;;;;23.71;59.09;101575.88;4987146;28;20040;-67
2022/05/19 09:31:53;;;;;;;10.15;8.32;;;;;;;23.62;58.99;101582.31;4988333;28;20030;-69
2022/05/19 09:34:23;;;;;;;8.32;7.43;;;;;;;23.70;60.62;101587.50;4987088;28;20098;-67
2022/05/19 09:37:07;;;;;;;9.07;7.22;;;;;;;23.80;60.84;101592.47;4987615;28;20030;-67
2022/05/19 09:39:42;;;;;;;10.57;8.35;;;;;;;23.74;58.79;101596.69;4989159;28;20113;-67
2022/05/19 09:42:11;;;;;;;8.65;7.32;;;;;;;23.76;58.58;101596.50;4996910;28;20045;-68
2022/05/19 09:44:42;;;;;;;10.00;8.00;;;;;;;23.71;58.39;101591.78;4987242;28;20034;-67
2022/05/19 09:47:18;;;;;;;8.50;7.18;;;;;;;23.77;59.67;101593.66;4987378;28;20093;-69
2022/05/19 09:49:53;;;;;;;8.95;6.75;;;;;;;23.68;59.85;101589.50;4987862;28;20034;-67
2022/05/19 09:52:23;;;;;;;8.00;6.40;;;;;;;23.72;58.40;101601.34;4984121;28;20542;-68
2022/05/19 09:55:09;;;;;;;8.88;6.38;;;;;;;23.76;59.53;101599.97;4987434;28;20057;-67
2022/05/19 09:57:52;;;;;;;7.28;5.10;;;;;;;23.80;58.75;101598.56;4994335;28;20140;-69
2022/05/19 10:00:20;;;;;;;7.97;4.95;;;;;;;23.81;58.12;101597.56;4993188;28;20030;-68
2022/05/19 10:02:50;;;;;;;6.65;4.68;;;;;;;23.90;56.72;101589.44;4987678;28;20096;-68
2022/05/19 10:05:31;;;;;;;6.68;4.88;;;;;;;23.92;56.64;101592.75;4985849;28;20061;-67
2022/05/19 10:08:05;;;;;;;5.93;4.30;;;;;;;23.97;56.45;101585.00;4986141;28;20085;-67
2022/05/19 10:10:32;;;;;;;5.65;4.35;;;;;;;24.04;55.85;101591.19;4983944;28;20109;-67
2022/05/19 10:13:11;;;;;;;7.78;5.03;;;;;;;24.09;56.49;101589.59;4985165;28;20126;-67
2022/05/19 10:15:42;;;;;;;7.03;5.40;;;;;;;24.05;54.46;101572.44;4986527;28;20033;-67
2022/05/19 10:18:30;;;;;;;7.10;5.32;;;;;;;24.09;55.31;101567.56;4986819;28;20031;-70
2022/05/19 10:21:10;;;;;;;7.68;5.85;;;;;;;24.26;55.53;101552.16;4987458;28;20061;-67
2022/05/19 10:24:13;;;;;;;7.78;6.20;;;;;;;24.29;55.43;101552.56;4984392;28;20057;-68
2022/05/19 10:26:51;;;;;;;8.52;6.93;;;;;;;24.12;54.59;101535.34;4986287;28;20030;-68
2022/05/19 10:32:31;;;;;;;7.07;5.60;;;;;;;24.36;55.63;101531.38;4986815;28;20464;-67
2022/05/19 10:35:12;;;;;;;7.65;6.28;;;;;;;24.49;54.29;101525.34;4986788;28;20031;-67
2022/05/19 10:37:43;;;;;;;10.13;6.60;;;;;;;24.54;53.86;101526.34;4990024;28;20031;-67
2022/05/19 10:40:26;;;;;;;7.82;5.85;;;;;;;24.57;53.98;101518.00;4991667;28;20319;-68
2022/05/19 10:43:05;;;;;;;9.02;6.03;;;;;;;24.68;54.00;101519.25;4991123;28;20026;-67
2022/05/19 10:45:35;;;;;;;6.55;5.65;;;;;;;24.65;52.28;101514.31;4990111;28;20030;-68
2022/05/19 10:48:31;;;;;;;7.15;5.45;;;;;;;24.66;52.90;101518.63;4990603;28;20046;-69
2022/05/19 10:51:06;;;;;;;7.30;5.55;;;;;;;24.85;51.82;101520.50;4990731;28;20042;-67
2022/05/19 10:53:54;;;;;;;7.32;5.50;;;;;;;24.81;52.38;101519.25;4990366;28;20037;-67
2022/05/19 10:56:22;;;;;;;7.55;4.88;;;;;;;24.87;52.96;101529.06;4990144;28;20467;-67
2022/05/19 10:59:10;;;;;;;6.45;5.38;;;;;;;24.91;52.79;101534.78;5006530;28;20459;-68
2022/05/19 11:01:56;;;;;;;8.93;6.47;;;;;;;24.72;51.13;101536.41;5005008;28;20462;-67
2022/05/19 11:04:51;;;;;;;7.85;6.00;;;;;;;24.79;52.84;101521.31;5000450;28;20553;-67
2022/05/19 11:07:28;;;;;;;8.35;6.07;;;;;;;24.70;51.81;101517.19;4993034;28;20453;-67
2022/05/19 11:10:21;;;;;;;8.25;6.10;;;;;;;24.71;53.16;101524.13;4990412;28;20018;-67
2022/05/19 11:12:58;;;;;;;8.80;5.43;;;;;;;24.73;53.88;101505.38;4971069;28;20038;-67
2022/05/19 11:15:48;;;;;;;7.90;5.85;;;;;;;24.73;52.98;101511.50;4970461;28;20399;-67
2022/05/19 11:18:25;;;;;;;9.02;6.07;;;;;;;24.74;53.03;101491.91;4970537;28;20097;-68
2022/05/19 11:20:59;;;;;;;10.32;6.10;;;;;;;24.77;53.72;101490.66;5008741;28;20184;-68
2022/05/19 11:23:47;;;;;;;8.00;5.47;;;;;;;24.64;52.77;101499.44;4994699;28;20529;-70
2022/05/19 11:26:27;;;;;;;7.95;5.68;;;;;;;24.59;54.53;101507.19;4984179;28;20129;-67
2022/05/19 11:29:06;;;;;;;8.05;5.70;;;;;;;24.61;53.36;101494.56;4988301;28;20022;-67
2022/05/19 11:32:01;;;;;;;8.95;5.50;;;;;;;24.63;54.38;101495.16;4988791;28;20026;-67
2022/05/19 11:34:45;;;;;;;8.02;5.00;;;;;;;24.49;54.44;101506.78;4989949;28;20061;-68
2022/05/19 11:37:30;;;;;;;9.48;5.30;;;;;;;24.45;54.96;101505.53;4991581;28;20502;-68
2022/05/19 11:40:24;;;;;;;7.05;4.93;;;;;;;24.48;56.18;101513.06;4991231;28;20482;-68
2022/05/19 11:43:09;;;;;;;8.88;5.22;;;;;;;24.49;55.37;101504.94;4985342;28;20034;-67